Currently 64°F in Lake Elsinore, California, USA
64°F
68°F / 64°F
calm
0.00"
Saturday, September 5, 2026 1:57 AM PDT

Lake Elsinore, California Weather Summary
Last 36 Hours

Temperature Winds Hourly Humidity Dewpoint
Time Report Norm Report Norm Max Gusts Precip. Rpt. Norm Rpt. Norm Pressure
1Sat 01:57 AM  63.8°F  70°F  calm  calm  2 mph  0.00"  55%  67%  47°F  58°F  N/A
3Sat 01:56 AM  63.8°F  70°F  calm  calm  2 mph  ----  55%  67%  47°F  58°F  N/A
Sat 01:00 AM  65.9°F  71°F  calm  calm  3 mph  0.00"  52%  66%  47°F  59°F  N/A
2Sat 12:01 AM  68.4°F  72°F  calm  calm  1 mph  ----  49%  63%  48°F  59°F  N/A
Sat 12:00 AM  68.4°F  72°F  calm  calm  6 mph  0.00"  49%  64%  48°F  59°F  N/A
Fri 11:00 PM  69.9°F  74°F  2 mph S  calm  5 mph  0.00"  48%  62%  49°F  60°F  N/A
Fri 10:00 PM  72.6°F  76°F  calm  1 mph  6 mph  0.00"  39%  59%  45°F  60°F  N/A
Fri 09:00 PM  74.8°F  78°F  1 mph S  1 mph  4 mph  0.00"  32%  53%  41°F  59°F  N/A
Fri 08:00 PM  78.0°F  82°F  calm  2 mph  7 mph  0.00"  29%  47%  42°F  59°F  N/A
Fri 07:00 PM  82.0°F  87°F  calm  2 mph  14 mph  0.00"  26%  37%  42°F  57°F  N/A
Fri 06:00 PM  85.6°F  92°F  calm  3 mph  16 mph  0.00"  21%  30%  40°F  55°F  N/A
Fri 05:00 PM  88.7°F  95°F  calm  4 mph  19 mph  0.00"  17%  27%  37°F  54°F  N/A
Fri 04:00 PM  92.6°F  98°F  calm  4 mph  15 mph  0.00"  18%  24%  41°F  54°F  N/A
Fri 03:00 PM  93.2°F  98°F  calm  4 mph  none  0.00"  19%  23%  43°F  53°F  N/A
Fri 02:00 PM  90.3°F  98°F  calm  2 mph  none  0.00"  10%  22%  25°F  51°F  N/A
Fri 01:00 PM  88.6°F  97°F  calm  2 mph  8 mph  0.00"  11%  23%  26°F  52°F  N/A
Fri 12:00 PM  86.2°F  93°F  3 mph S  2 mph  7 mph  0.00"  16%  28%  33°F  54°F  N/A
Fri 11:00 AM  80.3°F  89°F  1 mph S  2 mph  6 mph  0.00"  41%  35%  54°F  57°F  N/A
Fri 10:00 AM  75.2°F  84°F  calm  1 mph  5 mph  0.00"  49%  44%  54°F  59°F  N/A
Fri 09:00 AM  71.7°F  79°F  3 mph S  1 mph  5 mph  0.00"  58%  56%  55°F  61°F  N/A
Fri 08:00 AM  61.2°F  70°F  2 mph S  calm  8 mph  0.00"  79%  72%  54°F  61°F  N/A
Fri 07:00 AM  58.4°F  66°F  calm  calm  none  0.00"  74%  74%  50°F  57°F  N/A
Fri 06:00 AM  58.4°F  67°F  calm  calm  3 mph  0.00"  71%  72%  49°F  57°F  N/A
Fri 05:00 AM  58.9°F  67°F  2 mph S  calm  3 mph  0.00"  70%  71%  49°F  57°F  N/A
Fri 04:00 AM  60.1°F  68°F  calm  calm  3 mph  0.00"  68%  70%  49°F  58°F  N/A
Fri 03:00 AM  60.9°F  69°F  calm  calm  3 mph  0.00"  65%  68%  49°F  58°F  N/A
Fri 02:00 AM  61.5°F  70°F  calm  calm  3 mph  0.00"  61%  66%  47°F  58°F  N/A
Fri 01:00 AM  63.1°F  72°F  1 mph S  calm  2 mph  0.00"  60%  65%  49°F  59°F  N/A
Fri 12:00 AM  64.5°F  73°F  calm  calm  4 mph  0.00"  64%  63%  51°F  59°F  N/A
Thu 11:00 PM  66.5°F  75°F  calm  calm  4 mph  0.00"  66%  61%  54°F  60°F  N/A
Thu 10:00 PM  67.7°F  76°F  1 mph S  1 mph  11 mph  0.00"  66%  58%  56°F  60°F  N/A
Thu 09:00 PM  71.1°F  79°F  5 mph S  1 mph  11 mph  0.00"  58%  52%  55°F  59°F  N/A
Thu 08:00 PM  75.1°F  82°F  calm  2 mph  9 mph  0.00"  42%  45%  50°F  58°F  N/A
Thu 07:00 PM  77.2°F  87°F  calm  2 mph  18 mph  0.00"  37%  36%  48°F  56°F  N/A
Thu 06:00 PM  81.6°F  93°F  calm  3 mph  19 mph  0.00"  36%  29%  51°F  55°F  N/A
Thu 05:00 PM  84.9°F  96°F  4 mph S  4 mph  22 mph  0.00"  32%  25%  51°F  54°F  N/A
Thu 04:00 PM  90.0°F  99°F  9 mph S  4 mph  21 mph  0.00"  25%  23%  48°F  53°F  N/A
Thu 03:00 PM  92.0°F  99°F  calm  4 mph  none  0.00"  23%  21%  48°F  52°F  N/A
Thu 02:00 PM  89.5°F  99°F  calm  2 mph  11 mph  0.00"  22%  21%  44°F  51°F  N/A

  1. Current weather data. No green row appears if the current weather data is also the high or low for the current day.
  2. High temperature for the current day.
  3. Low temperature for the current day.

The Lake Elsinore, California weather pages are a service of WeatherCurrents. Lake Elsinore is located south of Corona and north of the Temecula Valley, in southwestern Riverside County, California.
Copyright ©Sat Sep 05 01:58:19 PDT 2026  WeatherCurrents. All rights reserved. - Submit questions and comments - Privacy Policy

This page automatically refreshes every 10 minutes.